sensor_id;sensor_type;location;lat;lon;timestamp;P1;durP1;ratioP1;P2;durP2;ratioP2
51792;SDS011;37850;53.178;6.376;2023-08-06T00:01:32;13.05;;;7.50;;
51792;SDS011;37850;53.178;6.376;2023-08-06T00:03:58;10.95;;;7.10;;
51792;SDS011;37850;53.178;6.376;2023-08-06T00:06:25;11.60;;;8.35;;
51792;SDS011;37850;53.178;6.376;2023-08-06T00:08:50;10.88;;;7.70;;
51792;SDS011;37850;53.178;6.376;2023-08-06T00:11:16;10.95;;;7.72;;
51792;SDS011;37850;53.178;6.376;2023-08-06T00:13:42;12.55;;;7.95;;
51792;SDS011;37850;53.178;6.376;2023-08-06T00:16:10;11.95;;;8.25;;
51792;SDS011;37850;53.178;6.376;2023-08-06T00:18:37;12.18;;;7.35;;
51792;SDS011;37850;53.178;6.376;2023-08-06T00:21:03;11.48;;;8.05;;
51792;SDS011;37850;53.178;6.376;2023-08-06T00:23:28;12.77;;;8.20;;
51792;SDS011;37850;53.178;6.376;2023-08-06T00:25:54;12.52;;;7.85;;
51792;SDS011;37850;53.178;6.376;2023-08-06T00:28:20;12.90;;;7.57;;
51792;SDS011;37850;53.178;6.376;2023-08-06T00:30:46;12.35;;;7.75;;
51792;SDS011;37850;53.178;6.376;2023-08-06T00:33:17;12.77;;;8.15;;
51792;SDS011;37850;53.178;6.376;2023-08-06T00:35:42;11.57;;;7.93;;
51792;SDS011;37850;53.178;6.376;2023-08-06T00:38:08;11.00;;;7.13;;
51792;SDS011;37850;53.178;6.376;2023-08-06T00:40:34;10.75;;;7.47;;
51792;SDS011;37850;53.178;6.376;2023-08-06T00:42:59;11.88;;;6.78;;
51792;SDS011;37850;53.178;6.376;2023-08-06T00:45:25;15.10;;;7.60;;
51792;SDS011;37850;53.178;6.376;2023-08-06T00:47:53;10.73;;;7.05;;
51792;SDS011;37850;53.178;6.376;2023-08-06T00:50:19;15.52;;;7.43;;
51792;SDS011;37850;53.178;6.376;2023-08-06T00:52:47;16.42;;;7.45;;
51792;SDS011;37850;53.178;6.376;2023-08-06T00:55:16;12.55;;;6.90;;
51792;SDS011;37850;53.178;6.376;2023-08-06T00:57:42;13.50;;;7.13;;
51792;SDS011;37850;53.178;6.376;2023-08-06T01:00:08;12.57;;;6.97;;
51792;SDS011;37850;53.178;6.376;2023-08-06T01:02:34;9.57;;;6.57;;
51792;SDS011;37850;53.178;6.376;2023-08-06T01:05:00;11.65;;;6.30;;
51792;SDS011;37850;53.178;6.376;2023-08-06T01:07:44;16.73;;;6.75;;
51792;SDS011;37850;53.178;6.376;2023-08-06T01:12:54;10.60;;;6.55;;
51792;SDS011;37850;53.178;6.376;2023-08-06T01:15:46;13.48;;;7.47;;
51792;SDS011;37850;53.178;6.376;2023-08-06T01:18:15;12.55;;;7.38;;
51792;SDS011;37850;53.178;6.376;2023-08-06T01:20:41;10.40;;;6.97;;
51792;SDS011;37850;53.178;6.376;2023-08-06T01:23:07;11.55;;;7.80;;
51792;SDS011;37850;53.178;6.376;2023-08-06T01:28:33;10.68;;;7.22;;
51792;SDS011;37850;53.178;6.376;2023-08-06T01:31:04;10.93;;;7.95;;
51792;SDS011;37850;53.178;6.376;2023-08-06T01:33:35;10.43;;;7.03;;
51792;SDS011;37850;53.178;6.376;2023-08-06T01:36:05;13.57;;;7.45;;
51792;SDS011;37850;53.178;6.376;2023-08-06T01:38:31;13.35;;;8.02;;
51792;SDS011;37850;53.178;6.376;2023-08-06T01:40:57;14.45;;;7.65;;
51792;SDS011;37850;53.178;6.376;2023-08-06T01:43:23;14.18;;;8.68;;
51792;SDS011;37850;53.178;6.376;2023-08-06T01:45:49;12.13;;;7.22;;
51792;SDS011;37850;53.178;6.376;2023-08-06T01:48:14;12.20;;;8.32;;
51792;SDS011;37850;53.178;6.376;2023-08-06T01:50:40;13.57;;;8.32;;
51792;SDS011;37850;53.178;6.376;2023-08-06T01:53:06;11.98;;;8.27;;
51792;SDS011;37850;53.178;6.376;2023-08-06T01:55:32;14.50;;;8.85;;
51792;SDS011;37850;53.178;6.376;2023-08-06T01:57:57;15.60;;;8.77;;
51792;SDS011;37850;53.178;6.376;2023-08-06T02:00:23;15.05;;;9.57;;
51792;SDS011;37850;53.178;6.376;2023-08-06T02:02:49;11.95;;;9.00;;
51792;SDS011;37850;53.178;6.376;2023-08-06T02:05:14;15.23;;;8.93;;
51792;SDS011;37850;53.178;6.376;2023-08-06T02:07:40;14.63;;;9.05;;
51792;SDS011;37850;53.178;6.376;2023-08-06T02:10:06;15.35;;;10.00;;
51792;SDS011;37850;53.178;6.376;2023-08-06T02:12:32;18.40;;;10.20;;
51792;SDS011;37850;53.178;6.376;2023-08-06T02:14:58;13.57;;;10.38;;
51792;SDS011;37850;53.178;6.376;2023-08-06T02:17:23;15.18;;;10.95;;
51792;SDS011;37850;53.178;6.376;2023-08-06T02:19:49;17.05;;;10.35;;
51792;SDS011;37850;53.178;6.376;2023-08-06T02:22:15;13.55;;;10.10;;
51792;SDS011;37850;53.178;6.376;2023-08-06T02:24:40;14.05;;;10.50;;
51792;SDS011;37850;53.178;6.376;2023-08-06T02:27:06;14.25;;;10.25;;
51792;SDS011;37850;53.178;6.376;2023-08-06T02:29:32;14.35;;;11.02;;
51792;SDS011;37850;53.178;6.376;2023-08-06T02:31:58;18.02;;;11.65;;
51792;SDS011;37850;53.178;6.376;2023-08-06T02:34:26;16.92;;;10.98;;
51792;SDS011;37850;53.178;6.376;2023-08-06T02:36:51;19.13;;;11.35;;
51792;SDS011;37850;53.178;6.376;2023-08-06T02:39:17;14.73;;;11.15;;
51792;SDS011;37850;53.178;6.376;2023-08-06T02:41:43;15.65;;;11.80;;
51792;SDS011;37850;53.178;6.376;2023-08-06T02:44:09;19.42;;;11.73;;
51792;SDS011;37850;53.178;6.376;2023-08-06T02:46:35;16.10;;;11.48;;
51792;SDS011;37850;53.178;6.376;2023-08-06T02:49:00;17.40;;;12.60;;
51792;SDS011;37850;53.178;6.376;2023-08-06T02:51:26;14.48;;;11.30;;
51792;SDS011;37850;53.178;6.376;2023-08-06T02:53:52;16.67;;;12.45;;
51792;SDS011;37850;53.178;6.376;2023-08-06T02:56:17;15.38;;;11.73;;
51792;SDS011;37850;53.178;6.376;2023-08-06T02:58:43;14.75;;;10.95;;
51792;SDS011;37850;53.178;6.376;2023-08-06T03:01:09;12.93;;;10.68;;
51792;SDS011;37850;53.178;6.376;2023-08-06T03:03:34;15.45;;;10.98;;
51792;SDS011;37850;53.178;6.376;2023-08-06T03:06:00;18.08;;;11.43;;
51792;SDS011;37850;53.178;6.376;2023-08-06T03:08:27;18.02;;;10.82;;
51792;SDS011;37850;53.178;6.376;2023-08-06T03:10:53;17.40;;;11.07;;
51792;SDS011;37850;53.178;6.376;2023-08-06T03:13:19;14.48;;;10.57;;
51792;SDS011;37850;53.178;6.376;2023-08-06T03:15:52;19.52;;;11.95;;
51792;SDS011;37850;53.178;6.376;2023-08-06T03:18:22;16.60;;;12.07;;
51792;SDS011;37850;53.178;6.376;2023-08-06T03:20:48;16.65;;;10.77;;
51792;SDS011;37850;53.178;6.376;2023-08-06T03:23:14;13.18;;;10.55;;
51792;SDS011;37850;53.178;6.376;2023-08-06T03:25:40;13.95;;;10.30;;
51792;SDS011;37850;53.178;6.376;2023-08-06T03:28:06;14.48;;;10.20;;
51792;SDS011;37850;53.178;6.376;2023-08-06T03:30:31;17.98;;;11.60;;
51792;SDS011;37850;53.178;6.376;2023-08-06T03:32:57;16.13;;;11.20;;
51792;SDS011;37850;53.178;6.376;2023-08-06T03:35:23;18.58;;;12.65;;
51792;SDS011;37850;53.178;6.376;2023-08-06T03:37:49;20.77;;;11.95;;
51792;SDS011;37850;53.178;6.376;2023-08-06T03:40:15;16.98;;;11.73;;
51792;SDS011;37850;53.178;6.376;2023-08-06T03:42:40;16.95;;;11.80;;
51792;SDS011;37850;53.178;6.376;2023-08-06T03:45:06;17.50;;;12.05;;
51792;SDS011;37850;53.178;6.376;2023-08-06T03:47:32;14.30;;;11.20;;
51792;SDS011;37850;53.178;6.376;2023-08-06T03:49:58;15.45;;;11.85;;
51792;SDS011;37850;53.178;6.376;2023-08-06T03:52:24;15.95;;;11.35;;
51792;SDS011;37850;53.178;6.376;2023-08-06T03:54:49;18.88;;;12.20;;
51792;SDS011;37850;53.178;6.376;2023-08-06T03:57:15;17.27;;;11.63;;
51792;SDS011;37850;53.178;6.376;2023-08-06T03:59:41;16.67;;;11.48;;
51792;SDS011;37850;53.178;6.376;2023-08-06T04:02:07;15.75;;;10.57;;
51792;SDS011;37850;53.178;6.376;2023-08-06T04:04:32;15.48;;;10.45;;
51792;SDS011;37850;53.178;6.376;2023-08-06T04:06:58;15.95;;;11.35;;
51792;SDS011;37850;53.178;6.376;2023-08-06T04:09:24;13.32;;;10.18;;
51792;SDS011;37850;53.178;6.376;2023-08-06T04:11:49;17.17;;;10.70;;
51792;SDS011;37850;53.178;6.376;2023-08-06T04:14:15;15.25;;;10.18;;
51792;SDS011;37850;53.178;6.376;2023-08-06T04:16:41;15.45;;;10.02;;
51792;SDS011;37850;53.178;6.376;2023-08-06T04:19:06;13.75;;;9.98;;
51792;SDS011;37850;53.178;6.376;2023-08-06T04:21:32;13.35;;;10.05;;
51792;SDS011;37850;53.178;6.376;2023-08-06T04:23:58;13.30;;;10.45;;
51792;SDS011;37850;53.178;6.376;2023-08-06T04:26:24;12.65;;;9.82;;
51792;SDS011;37850;53.178;6.376;2023-08-06T04:28:50;13.90;;;10.02;;
51792;SDS011;37850;53.178;6.376;2023-08-06T04:31:16;20.30;;;11.63;;
51792;SDS011;37850;53.178;6.376;2023-08-06T04:33:42;13.52;;;9.63;;
51792;SDS011;37850;53.178;6.376;2023-08-06T04:36:07;14.55;;;9.40;;
51792;SDS011;37850;53.178;6.376;2023-08-06T04:38:33;15.23;;;10.10;;
51792;SDS011;37850;53.178;6.376;2023-08-06T04:40:59;12.02;;;9.40;;
51792;SDS011;37850;53.178;6.376;2023-08-06T04:43:26;13.68;;;10.27;;
51792;SDS011;37850;53.178;6.376;2023-08-06T04:45:53;15.85;;;9.65;;
51792;SDS011;37850;53.178;6.376;2023-08-06T04:48:19;13.52;;;9.52;;
51792;SDS011;37850;53.178;6.376;2023-08-06T04:50:48;17.40;;;10.25;;
51792;SDS011;37850;53.178;6.376;2023-08-06T04:53:15;13.90;;;10.00;;
51792;SDS011;37850;53.178;6.376;2023-08-06T04:55:41;15.35;;;10.45;;
51792;SDS011;37850;53.178;6.376;2023-08-06T04:58:09;14.27;;;10.32;;
51792;SDS011;37850;53.178;6.376;2023-08-06T05:00:35;14.48;;;9.93;;
51792;SDS011;37850;53.178;6.376;2023-08-06T05:03:01;12.15;;;9.30;;
51792;SDS011;37850;53.178;6.376;2023-08-06T05:05:27;11.98;;;9.50;;
51792;SDS011;37850;53.178;6.376;2023-08-06T05:07:54;13.75;;;9.05;;
51792;SDS011;37850;53.178;6.376;2023-08-06T05:10:21;10.23;;;7.60;;
51792;SDS011;37850;53.178;6.376;2023-08-06T05:12:49;11.30;;;7.80;;
51792;SDS011;37850;53.178;6.376;2023-08-06T05:15:15;12.45;;;6.68;;
51792;SDS011;37850;53.178;6.376;2023-08-06T05:17:41;11.05;;;6.60;;
51792;SDS011;37850;53.178;6.376;2023-08-06T05:20:06;10.57;;;5.88;;
51792;SDS011;37850;53.178;6.376;2023-08-06T05:22:32;9.82;;;5.95;;
51792;SDS011;37850;53.178;6.376;2023-08-06T05:24:58;7.50;;;5.50;;
51792;SDS011;37850;53.178;6.376;2023-08-06T05:27:24;8.80;;;5.68;;
51792;SDS011;37850;53.178;6.376;2023-08-06T05:29:49;9.02;;;5.32;;
51792;SDS011;37850;53.178;6.376;2023-08-06T05:32:19;8.95;;;5.53;;
51792;SDS011;37850;53.178;6.376;2023-08-06T05:34:45;12.70;;;6.30;;
51792;SDS011;37850;53.178;6.376;2023-08-06T05:37:11;8.32;;;5.65;;
51792;SDS011;37850;53.178;6.376;2023-08-06T05:39:36;9.70;;;5.57;;
51792;SDS011;37850;53.178;6.376;2023-08-06T05:42:02;8.10;;;5.88;;
51792;SDS011;37850;53.178;6.376;2023-08-06T05:44:28;9.25;;;5.43;;
51792;SDS011;37850;53.178;6.376;2023-08-06T05:46:54;8.10;;;5.88;;
51792;SDS011;37850;53.178;6.376;2023-08-06T05:49:20;8.40;;;5.82;;
51792;SDS011;37850;53.178;6.376;2023-08-06T05:51:45;9.02;;;5.82;;
51792;SDS011;37850;53.178;6.376;2023-08-06T05:54:11;8.90;;;5.60;;
51792;SDS011;37850;53.178;6.376;2023-08-06T05:56:37;9.05;;;6.18;;
51792;SDS011;37850;53.178;6.376;2023-08-06T05:59:02;10.90;;;5.90;;
51792;SDS011;37850;53.178;6.376;2023-08-06T06:01:28;11.48;;;5.78;;
51792;SDS011;37850;53.178;6.376;2023-08-06T06:03:54;10.00;;;5.50;;
51792;SDS011;37850;53.178;6.376;2023-08-06T06:06:19;8.70;;;6.00;;
51792;SDS011;37850;53.178;6.376;2023-08-06T06:08:45;10.63;;;6.13;;
51792;SDS011;37850;53.178;6.376;2023-08-06T06:11:11;9.35;;;6.60;;
51792;SDS011;37850;53.178;6.376;2023-08-06T06:13:37;8.90;;;6.50;;
51792;SDS011;37850;53.178;6.376;2023-08-06T06:16:02;10.60;;;6.55;;
51792;SDS011;37850;53.178;6.376;2023-08-06T06:18:28;9.82;;;6.68;;
51792;SDS011;37850;53.178;6.376;2023-08-06T06:20:54;9.27;;;6.45;;
51792;SDS011;37850;53.178;6.376;2023-08-06T06:23:19;9.82;;;7.13;;
51792;SDS011;37850;53.178;6.376;2023-08-06T06:25:49;9.43;;;7.10;;
51792;SDS011;37850;53.178;6.376;2023-08-06T06:28:18;9.40;;;6.45;;
51792;SDS011;37850;53.178;6.376;2023-08-06T06:30:44;9.73;;;6.47;;
51792;SDS011;37850;53.178;6.376;2023-08-06T06:33:10;15.90;;;7.60;;
51792;SDS011;37850;53.178;6.376;2023-08-06T06:35:36;9.82;;;6.40;;
51792;SDS011;37850;53.178;6.376;2023-08-06T06:38:02;11.20;;;6.30;;
51792;SDS011;37850;53.178;6.376;2023-08-06T06:40:28;10.75;;;6.95;;
51792;SDS011;37850;53.178;6.376;2023-08-06T06:42:53;8.70;;;6.90;;
51792;SDS011;37850;53.178;6.376;2023-08-06T06:45:19;8.95;;;6.38;;
51792;SDS011;37850;53.178;6.376;2023-08-06T06:47:45;9.00;;;6.63;;
51792;SDS011;37850;53.178;6.376;2023-08-06T06:50:11;9.48;;;6.75;;
51792;SDS011;37850;53.178;6.376;2023-08-06T06:52:37;10.32;;;6.72;;
51792;SDS011;37850;53.178;6.376;2023-08-06T06:55:02;10.55;;;7.13;;
51792;SDS011;37850;53.178;6.376;2023-08-06T06:57:29;9.68;;;6.60;;
51792;SDS011;37850;53.178;6.376;2023-08-06T06:59:54;10.48;;;6.78;;
51792;SDS011;37850;53.178;6.376;2023-08-06T07:02:20;10.85;;;6.75;;
51792;SDS011;37850;53.178;6.376;2023-08-06T07:04:46;8.90;;;6.57;;
51792;SDS011;37850;53.178;6.376;2023-08-06T07:07:12;9.48;;;7.13;;
51792;SDS011;37850;53.178;6.376;2023-08-06T07:09:37;10.88;;;7.55;;
51792;SDS011;37850;53.178;6.376;2023-08-06T07:12:03;12.65;;;7.05;;
51792;SDS011;37850;53.178;6.376;2023-08-06T07:14:29;9.35;;;6.28;;
51792;SDS011;37850;53.178;6.376;2023-08-06T07:16:55;13.20;;;8.55;;
51792;SDS011;37850;53.178;6.376;2023-08-06T07:19:21;11.95;;;7.30;;
51792;SDS011;37850;53.178;6.376;2023-08-06T07:21:47;11.57;;;6.78;;
51792;SDS011;37850;53.178;6.376;2023-08-06T07:24:12;10.65;;;6.53;;
51792;SDS011;37850;53.178;6.376;2023-08-06T07:26:38;8.90;;;6.15;;
51792;SDS011;37850;53.178;6.376;2023-08-06T07:29:04;9.82;;;6.07;;
51792;SDS011;37850;53.178;6.376;2023-08-06T07:31:29;10.77;;;6.78;;
51792;SDS011;37850;53.178;6.376;2023-08-06T07:33:55;10.68;;;6.72;;
51792;SDS011;37850;53.178;6.376;2023-08-06T07:36:21;9.27;;;6.75;;
51792;SDS011;37850;53.178;6.376;2023-08-06T07:38:47;9.98;;;6.50;;
51792;SDS011;37850;53.178;6.376;2023-08-06T07:41:16;10.98;;;6.38;;
51792;SDS011;37850;53.178;6.376;2023-08-06T07:43:42;9.68;;;6.05;;
51792;SDS011;37850;53.178;6.376;2023-08-06T07:46:08;9.55;;;6.13;;
51792;SDS011;37850;53.178;6.376;2023-08-06T07:48:33;9.85;;;6.28;;
51792;SDS011;37850;53.178;6.376;2023-08-06T07:50:59;9.07;;;5.68;;
51792;SDS011;37850;53.178;6.376;2023-08-06T07:53:25;8.30;;;5.18;;
51792;SDS011;37850;53.178;6.376;2023-08-06T07:55:57;7.22;;;5.18;;
51792;SDS011;37850;53.178;6.376;2023-08-06T07:58:24;7.65;;;4.72;;
51792;SDS011;37850;53.178;6.376;2023-08-06T08:00:50;7.88;;;5.18;;
51792;SDS011;37850;53.178;6.376;2023-08-06T08:03:16;10.38;;;5.50;;
51792;SDS011;37850;53.178;6.376;2023-08-06T08:05:43;8.07;;;4.50;;
51792;SDS011;37850;53.178;6.376;2023-08-06T08:08:09;7.22;;;4.55;;
51792;SDS011;37850;53.178;6.376;2023-08-06T08:10:35;7.18;;;4.50;;
51792;SDS011;37850;53.178;6.376;2023-08-06T08:13:03;7.88;;;4.18;;
51792;SDS011;37850;53.178;6.376;2023-08-06T08:15:29;7.20;;;4.30;;
51792;SDS011;37850;53.178;6.376;2023-08-06T08:17:57;7.00;;;3.97;;
51792;SDS011;37850;53.178;6.376;2023-08-06T08:20:23;6.60;;;3.58;;
51792;SDS011;37850;53.178;6.376;2023-08-06T08:22:49;5.80;;;3.95;;
51792;SDS011;37850;53.178;6.376;2023-08-06T08:25:15;6.10;;;3.53;;
51792;SDS011;37850;53.178;6.376;2023-08-06T08:27:41;6.97;;;3.97;;
51792;SDS011;37850;53.178;6.376;2023-08-06T08:30:07;5.20;;;3.03;;
51792;SDS011;37850;53.178;6.376;2023-08-06T08:32:33;5.65;;;2.95;;
51792;SDS011;37850;53.178;6.376;2023-08-06T08:34:59;5.28;;;2.80;;
51792;SDS011;37850;53.178;6.376;2023-08-06T08:37:24;6.80;;;3.10;;
51792;SDS011;37850;53.178;6.376;2023-08-06T08:39:50;5.25;;;2.65;;
51792;SDS011;37850;53.178;6.376;2023-08-06T08:42:17;5.88;;;2.50;;
51792;SDS011;37850;53.178;6.376;2023-08-06T08:44:43;4.93;;;2.50;;
51792;SDS011;37850;53.178;6.376;2023-08-06T08:47:10;5.75;;;2.60;;
51792;SDS011;37850;53.178;6.376;2023-08-06T08:49:37;6.38;;;2.67;;
51792;SDS011;37850;53.178;6.376;2023-08-06T08:52:05;8.23;;;2.63;;
51792;SDS011;37850;53.178;6.376;2023-08-06T08:54:35;7.90;;;2.65;;
51792;SDS011;37850;53.178;6.376;2023-08-06T08:57:04;4.50;;;2.33;;
51792;SDS011;37850;53.178;6.376;2023-08-06T08:59:29;7.10;;;2.40;;
51792;SDS011;37850;53.178;6.376;2023-08-06T09:01:55;4.10;;;1.85;;
51792;SDS011;37850;53.178;6.376;2023-08-06T09:04:23;4.25;;;2.33;;
51792;SDS011;37850;53.178;6.376;2023-08-06T09:06:51;4.38;;;2.22;;
51792;SDS011;37850;53.178;6.376;2023-08-06T09:09:22;5.25;;;2.35;;
51792;SDS011;37850;53.178;6.376;2023-08-06T09:11:51;4.15;;;2.55;;
51792;SDS011;37850;53.178;6.376;2023-08-06T09:14:20;5.20;;;2.20;;
51792;SDS011;37850;53.178;6.376;2023-08-06T09:16:46;4.60;;;2.20;;
51792;SDS011;37850;53.178;6.376;2023-08-06T09:19:13;6.00;;;2.50;;
51792;SDS011;37850;53.178;6.376;2023-08-06T09:21:42;4.90;;;2.35;;
51792;SDS011;37850;53.178;6.376;2023-08-06T09:24:08;4.82;;;2.22;;
51792;SDS011;37850;53.178;6.376;2023-08-06T09:26:39;5.57;;;2.22;;
51792;SDS011;37850;53.178;6.376;2023-08-06T09:29:06;7.10;;;3.05;;
51792;SDS011;37850;53.178;6.376;2023-08-06T09:31:33;4.72;;;2.00;;
51792;SDS011;37850;53.178;6.376;2023-08-06T09:34:15;3.70;;;2.00;;
51792;SDS011;37850;53.178;6.376;2023-08-06T09:36:42;5.15;;;2.40;;
51792;SDS011;37850;53.178;6.376;2023-08-06T09:39:14;6.32;;;2.35;;
51792;SDS011;37850;53.178;6.376;2023-08-06T09:41:41;5.32;;;2.15;;
51792;SDS011;37850;53.178;6.376;2023-08-06T09:44:20;4.82;;;2.10;;
51792;SDS011;37850;53.178;6.376;2023-08-06T09:46:55;5.68;;;2.13;;
51792;SDS011;37850;53.178;6.376;2023-08-06T09:49:27;6.00;;;2.45;;
51792;SDS011;37850;53.178;6.376;2023-08-06T09:51:54;4.80;;;2.00;;
51792;SDS011;37850;53.178;6.376;2023-08-06T09:54:24;8.13;;;2.40;;
51792;SDS011;37850;53.178;6.376;2023-08-06T09:56:55;5.22;;;2.20;;
51792;SDS011;37850;53.178;6.376;2023-08-06T09:59:24;4.05;;;1.88;;
51792;SDS011;37850;53.178;6.376;2023-08-06T10:01:50;5.40;;;2.20;;
51792;SDS011;37850;53.178;6.376;2023-08-06T10:04:16;5.00;;;1.85;;
51792;SDS011;37850;53.178;6.376;2023-08-06T10:06:43;5.85;;;1.90;;
51792;SDS011;37850;53.178;6.376;2023-08-06T10:09:15;3.95;;;1.70;;
51792;SDS011;37850;53.178;6.376;2023-08-06T10:11:41;4.50;;;1.70;;
51792;SDS011;37850;53.178;6.376;2023-08-06T10:14:14;4.25;;;1.90;;
51792;SDS011;37850;53.178;6.376;2023-08-06T10:16:45;5.00;;;1.70;;
51792;SDS011;37850;53.178;6.376;2023-08-06T10:19:12;4.50;;;1.90;;
51792;SDS011;37850;53.178;6.376;2023-08-06T10:21:40;4.75;;;1.58;;
51792;SDS011;37850;53.178;6.376;2023-08-06T10:24:06;4.50;;;1.73;;
51792;SDS011;37850;53.178;6.376;2023-08-06T10:26:36;6.57;;;1.85;;
51792;SDS011;37850;53.178;6.376;2023-08-06T10:29:01;5.40;;;2.25;;
51792;SDS011;37850;53.178;6.376;2023-08-06T10:31:53;4.75;;;1.88;;
51792;SDS011;37850;53.178;6.376;2023-08-06T10:34:20;13.80;;;2.22;;
51792;SDS011;37850;53.178;6.376;2023-08-06T10:36:46;5.40;;;1.85;;
51792;SDS011;37850;53.178;6.376;2023-08-06T10:39:15;3.72;;;1.73;;
51792;SDS011;37850;53.178;6.376;2023-08-06T10:41:44;6.93;;;2.05;;
51792;SDS011;37850;53.178;6.376;2023-08-06T10:44:10;3.78;;;1.77;;
51792;SDS011;37850;53.178;6.376;2023-08-06T10:46:37;5.03;;;2.00;;
51792;SDS011;37850;53.178;6.376;2023-08-06T10:49:03;6.03;;;2.42;;
51792;SDS011;37850;53.178;6.376;2023-08-06T10:51:29;5.68;;;2.17;;
51792;SDS011;37850;53.178;6.376;2023-08-06T10:53:55;5.28;;;2.22;;
51792;SDS011;37850;53.178;6.376;2023-08-06T10:56:24;4.50;;;2.00;;
51792;SDS011;37850;53.178;6.376;2023-08-06T10:58:51;4.35;;;1.80;;
51792;SDS011;37850;53.178;6.376;2023-08-06T11:01:19;5.30;;;1.90;;
51792;SDS011;37850;53.178;6.376;2023-08-06T11:03:46;5.85;;;1.77;;
51792;SDS011;37850;53.178;6.376;2023-08-06T11:06:17;5.22;;;1.95;;
51792;SDS011;37850;53.178;6.376;2023-08-06T11:08:47;3.60;;;1.77;;
51792;SDS011;37850;53.178;6.376;2023-08-06T11:11:20;4.60;;;1.63;;
51792;SDS011;37850;53.178;6.376;2023-08-06T11:13:48;5.28;;;1.73;;
51792;SDS011;37850;53.178;6.376;2023-08-06T11:16:18;5.68;;;1.80;;
51792;SDS011;37850;53.178;6.376;2023-08-06T11:18:45;3.80;;;1.80;;
51792;SDS011;37850;53.178;6.376;2023-08-06T11:21:12;3.92;;;1.63;;
51792;SDS011;37850;53.178;6.376;2023-08-06T11:23:38;6.10;;;1.90;;
51792;SDS011;37850;53.178;6.376;2023-08-06T11:26:05;5.07;;;1.88;;
51792;SDS011;37850;53.178;6.376;2023-08-06T11:28:30;6.70;;;1.80;;
51792;SDS011;37850;53.178;6.376;2023-08-06T11:30:57;3.40;;;1.60;;
51792;SDS011;37850;53.178;6.376;2023-08-06T11:33:27;5.47;;;1.80;;
51792;SDS011;37850;53.178;6.376;2023-08-06T11:35:57;5.72;;;1.75;;
51792;SDS011;37850;53.178;6.376;2023-08-06T11:38:25;3.92;;;1.58;;
51792;SDS011;37850;53.178;6.376;2023-08-06T11:40:52;5.40;;;1.70;;
51792;SDS011;37850;53.178;6.376;2023-08-06T11:43:18;3.92;;;1.83;;
51792;SDS011;37850;53.178;6.376;2023-08-06T11:45:47;4.05;;;1.67;;
51792;SDS011;37850;53.178;6.376;2023-08-06T11:48:13;8.07;;;1.70;;
51792;SDS011;37850;53.178;6.376;2023-08-06T11:50:39;4.85;;;1.75;;
51792;SDS011;37850;53.178;6.376;2023-08-06T11:53:05;3.63;;;1.80;;
51792;SDS011;37850;53.178;6.376;2023-08-06T11:55:31;3.75;;;1.65;;
51792;SDS011;37850;53.178;6.376;2023-08-06T11:57:58;4.32;;;1.88;;
51792;SDS011;37850;53.178;6.376;2023-08-06T12:00:28;6.22;;;1.95;;
51792;SDS011;37850;53.178;6.376;2023-08-06T12:02:54;3.95;;;1.58;;
51792;SDS011;37850;53.178;6.376;2023-08-06T12:05:21;4.15;;;2.00;;
51792;SDS011;37850;53.178;6.376;2023-08-06T12:07:52;4.20;;;1.60;;
51792;SDS011;37850;53.178;6.376;2023-08-06T12:10:21;4.25;;;1.65;;
51792;SDS011;37850;53.178;6.376;2023-08-06T12:12:49;4.28;;;1.63;;
51792;SDS011;37850;53.178;6.376;2023-08-06T12:15:15;3.78;;;1.70;;
51792;SDS011;37850;53.178;6.376;2023-08-06T12:17:41;5.82;;;1.75;;
51792;SDS011;37850;53.178;6.376;2023-08-06T12:20:07;5.38;;;1.80;;
51792;SDS011;37850;53.178;6.376;2023-08-06T12:22:34;6.13;;;1.70;;
51792;SDS011;37850;53.178;6.376;2023-08-06T12:25:01;5.70;;;1.85;;
51792;SDS011;37850;53.178;6.376;2023-08-06T12:27:28;6.38;;;1.83;;
51792;SDS011;37850;53.178;6.376;2023-08-06T12:29:54;4.38;;;1.80;;
51792;SDS011;37850;53.178;6.376;2023-08-06T12:32:20;4.40;;;1.58;;
51792;SDS011;37850;53.178;6.376;2023-08-06T12:34:47;5.00;;;1.73;;
51792;SDS011;37850;53.178;6.376;2023-08-06T12:37:14;7.35;;;1.95;;
51792;SDS011;37850;53.178;6.376;2023-08-06T12:39:40;4.53;;;1.70;;
51792;SDS011;37850;53.178;6.376;2023-08-06T12:42:05;5.00;;;2.05;;
51792;SDS011;37850;53.178;6.376;2023-08-06T12:44:31;3.83;;;1.48;;
51792;SDS011;37850;53.178;6.376;2023-08-06T12:46:58;4.22;;;1.65;;
51792;SDS011;37850;53.178;6.376;2023-08-06T12:49:24;4.63;;;1.77;;
51792;SDS011;37850;53.178;6.376;2023-08-06T12:51:51;3.47;;;1.48;;
51792;SDS011;37850;53.178;6.376;2023-08-06T12:54:18;3.45;;;1.40;;
51792;SDS011;37850;53.178;6.376;2023-08-06T12:56:45;3.88;;;1.63;;
51792;SDS011;37850;53.178;6.376;2023-08-06T12:59:14;3.97;;;1.85;;
51792;SDS011;37850;53.178;6.376;2023-08-06T13:01:40;4.63;;;1.50;;
51792;SDS011;37850;53.178;6.376;2023-08-06T13:04:06;5.28;;;2.00;;
51792;SDS011;37850;53.178;6.376;2023-08-06T13:06:32;5.07;;;1.60;;
51792;SDS011;37850;53.178;6.376;2023-08-06T13:09:11;3.80;;;1.83;;
51792;SDS011;37850;53.178;6.376;2023-08-06T13:11:38;5.00;;;1.77;;
51792;SDS011;37850;53.178;6.376;2023-08-06T13:14:05;3.50;;;1.60;;
51792;SDS011;37850;53.178;6.376;2023-08-06T13:16:32;4.70;;;1.58;;
51792;SDS011;37850;53.178;6.376;2023-08-06T13:18:58;5.13;;;1.75;;
51792;SDS011;37850;53.178;6.376;2023-08-06T13:21:24;3.55;;;1.42;;
51792;SDS011;37850;53.178;6.376;2023-08-06T13:23:56;6.10;;;1.95;;
51792;SDS011;37850;53.178;6.376;2023-08-06T13:26:21;3.38;;;1.58;;
51792;SDS011;37850;53.178;6.376;2023-08-06T13:28:47;3.03;;;1.73;;
51792;SDS011;37850;53.178;6.376;2023-08-06T13:31:14;5.57;;;1.65;;
51792;SDS011;37850;53.178;6.376;2023-08-06T13:33:40;5.03;;;1.92;;
51792;SDS011;37850;53.178;6.376;2023-08-06T13:36:05;5.07;;;1.73;;
51792;SDS011;37850;53.178;6.376;2023-08-06T13:38:31;4.32;;;1.80;;
51792;SDS011;37850;53.178;6.376;2023-08-06T13:40:57;4.07;;;1.80;;
51792;SDS011;37850;53.178;6.376;2023-08-06T13:43:24;3.58;;;1.73;;
51792;SDS011;37850;53.178;6.376;2023-08-06T13:45:49;3.92;;;1.58;;
51792;SDS011;37850;53.178;6.376;2023-08-06T13:48:15;6.28;;;2.53;;
51792;SDS011;37850;53.178;6.376;2023-08-06T13:50:41;4.30;;;1.80;;
51792;SDS011;37850;53.178;6.376;2023-08-06T13:53:06;3.55;;;1.70;;
51792;SDS011;37850;53.178;6.376;2023-08-06T13:55:32;5.05;;;1.77;;
51792;SDS011;37850;53.178;6.376;2023-08-06T13:57:58;3.50;;;1.25;;
51792;SDS011;37850;53.178;6.376;2023-08-06T14:00:23;5.70;;;1.50;;
51792;SDS011;37850;53.178;6.376;2023-08-06T14:02:49;4.75;;;2.10;;
51792;SDS011;37850;53.178;6.376;2023-08-06T14:05:15;5.22;;;1.85;;
51792;SDS011;37850;53.178;6.376;2023-08-06T14:07:41;3.80;;;1.42;;
51792;SDS011;37850;53.178;6.376;2023-08-06T14:10:07;3.35;;;1.48;;
51792;SDS011;37850;53.178;6.376;2023-08-06T14:12:34;3.60;;;1.70;;
51792;SDS011;37850;53.178;6.376;2023-08-06T14:15:00;4.88;;;1.50;;
51792;SDS011;37850;53.178;6.376;2023-08-06T14:17:27;4.35;;;1.80;;
51792;SDS011;37850;53.178;6.376;2023-08-06T14:19:52;3.35;;;1.50;;
51792;SDS011;37850;53.178;6.376;2023-08-06T14:22:18;3.40;;;1.60;;
51792;SDS011;37850;53.178;6.376;2023-08-06T14:24:44;3.97;;;1.60;;
51792;SDS011;37850;53.178;6.376;2023-08-06T14:27:09;4.75;;;1.80;;
51792;SDS011;37850;53.178;6.376;2023-08-06T14:29:35;3.92;;;1.50;;
51792;SDS011;37850;53.178;6.376;2023-08-06T14:32:01;4.50;;;1.83;;
51792;SDS011;37850;53.178;6.376;2023-08-06T14:34:27;3.40;;;1.60;;
51792;SDS011;37850;53.178;6.376;2023-08-06T14:36:53;4.47;;;1.75;;
51792;SDS011;37850;53.178;6.376;2023-08-06T14:39:19;4.07;;;1.70;;
51792;SDS011;37850;53.178;6.376;2023-08-06T14:41:44;7.43;;;1.85;;
51792;SDS011;37850;53.178;6.376;2023-08-06T14:44:10;5.65;;;1.55;;